Time;durP1;ratioP1;P1;durP2;ratioP2;P2;SDS_P1;SDS_P2;PMS_P1;PMS_P2;Temp;Humidity;BMP_temperature;BMP_pressure;BME280_temperature;BME280_humidity;BME280_pressure;Samples;Min_cycle;Max_cycle;Signal;HPM_P1;HPM_P2
2022/08/03 00:04:52;;;;;;;1.75;1.40;;;;;;;20.11;60.93;100074.59;10459408;28;20044;-72
2022/08/03 00:09:54;;;;;;;2.58;1.40;;;;;;;19.97;61.69;100069.41;10441293;28;20053;-72
2022/08/03 00:14:56;;;;;;;2.80;1.58;;;;;;;20.00;61.89;100071.81;10459134;28;20087;-72
2022/08/03 00:19:57;;;;;;;1.55;1.17;;;;;;;20.10;61.61;100064.06;10458652;28;20056;-72
2022/08/03 00:24:59;;;;;;;2.75;1.50;;;;;;;19.84;62.42;100058.72;10440709;28;20045;-71
2022/08/03 00:30:01;;;;;;;2.78;1.80;;;;;;;19.94;62.49;100066.94;10459439;28;20433;-73
2022/08/03 00:35:03;;;;;;;2.42;1.48;;;;;;;19.98;62.79;100067.59;10458135;28;20037;-72
2022/08/03 00:40:13;;;;;;;1.83;1.73;;;;;;;20.03;62.32;100063.63;10459691;28;20452;-73
2022/08/03 00:45:18;;;;;;;4.72;1.70;;;;;;;19.83;63.05;100058.81;10458943;28;20041;-72
2022/08/03 00:50:22;;;;;;;5.28;1.83;;;;;;;19.46;64.76;100050.66;10458770;28;20049;-72
2022/08/03 00:55:24;;;;;;;2.05;1.77;;;;;;;19.47;64.62;100067.50;10458478;28;20049;-69
2022/08/03 01:00:27;;;;;;;2.35;1.60;;;;;;;19.42;64.65;100058.00;10458226;28;20041;-69
2022/08/03 01:05:29;;;;;;;2.30;1.40;;;;;;;19.41;64.87;100058.13;10458822;28;20411;-69
2022/08/03 01:10:38;;;;;;;2.95;1.60;;;;;;;19.32;65.34;100064.09;10438880;28;20045;-69
2022/08/03 01:15:59;;;;;;;2.58;2.03;;;;;;;19.46;65.46;100064.00;10456222;28;20044;-69
2022/08/03 01:21:06;;;;;;;3.30;1.60;;;;;;;19.43;65.32;100066.84;10457145;28;20049;-69
2022/08/03 01:26:23;;;;;;;1.92;1.60;;;;;;;19.21;65.89;100061.28;10464705;28;20048;-69
2022/08/03 01:31:54;;;;;;;2.08;1.88;;;;;;;18.91;67.23;100062.38;10464367;28;20045;-69
2022/08/03 01:37:22;;;;;;;3.08;2.10;;;;;;;19.20;66.64;100059.56;10464233;28;20095;-68
2022/08/03 01:42:25;;;;;;;2.55;1.77;;;;;;;19.05;67.19;100049.00;10446847;28;20059;-70
2022/08/03 01:47:28;;;;;;;2.75;1.90;;;;;;;18.94;67.82;100058.63;10464322;28;20041;-69
2022/08/03 01:52:32;;;;;;;2.17;2.00;;;;;;;18.82;68.29;100062.97;10446315;28;20128;-69
2022/08/03 01:57:37;;;;;;;4.78;1.90;;;;;;;18.81;68.37;100058.59;10463577;28;20052;-69
2022/08/03 02:03:00;;;;;;;2.40;1.83;;;;;;;18.72;68.93;100069.84;10463304;28;20091;-69
2022/08/03 02:08:04;;;;;;;1.88;1.70;;;;;;;18.65;69.21;100061.38;10463290;28;20063;-70
2022/08/03 02:13:07;;;;;;;2.28;2.08;;;;;;;18.87;68.56;100051.06;10465638;28;20124;-68
2022/08/03 02:18:10;;;;;;;2.22;1.85;;;;;;;18.92;68.67;100045.44;10463429;28;20076;-69
2022/08/03 02:23:16;;;;;;;2.20;1.98;;;;;;;18.76;68.82;100045.56;10465326;28;20041;-69
2022/08/03 02:28:20;;;;;;;2.80;2.05;;;;;;;18.72;69.57;100037.88;10463032;28;20045;-69
2022/08/03 02:33:33;;;;;;;3.50;1.90;;;;;;;18.44;70.51;100038.81;10461603;28;20041;-69
2022/08/03 02:38:37;;;;;;;3.50;2.30;;;;;;;18.31;71.13;100039.56;10462653;28;20041;-69
2022/08/03 02:43:39;;;;;;;2.13;1.92;;;;;;;18.51;70.94;100035.66;10461674;28;20060;-69
2022/08/03 02:49:02;;;;;;;3.95;2.60;;;;;;;18.46;70.82;100044.88;10463137;28;20379;-68
2022/08/03 02:54:25;;;;;;;3.15;2.58;;;;;;;18.39;71.24;100041.75;10461345;28;20083;-68
2022/08/03 02:59:30;;;;;;;2.40;2.20;;;;;;;18.29;71.52;100048.63;10461493;28;20041;-69
2022/08/03 03:04:32;;;;;;;2.53;2.20;;;;;;;18.49;71.51;100042.88;10443724;28;20064;-68
2022/08/03 03:09:34;;;;;;;2.45;2.10;;;;;;;18.53;71.09;100041.72;10461083;28;20057;-68
2022/08/03 03:14:43;;;;;;;3.00;2.67;;;;;;;18.21;72.19;100035.81;10461921;28;20059;-68
2022/08/03 03:19:46;;;;;;;3.83;2.45;;;;;;;18.43;71.94;100048.59;10461636;28;20437;-68
2022/08/03 03:24:50;;;;;;;4.00;2.22;;;;;;;18.37;72.10;100047.19;10460244;28;20041;-69
2022/08/03 03:29:52;;;;;;;3.13;2.90;;;;;;;18.35;72.00;100045.56;10442239;28;20049;-69
2022/08/03 03:34:55;;;;;;;2.50;2.38;;;;;;;18.02;73.31;100041.44;10460189;28;20053;-68
2022/08/03 03:39:57;;;;;;;6.28;2.60;;;;;;;18.31;72.47;100049.38;10459711;28;20053;-69
2022/08/03 03:45:03;;;;;;;3.85;2.92;;;;;;;18.14;73.04;100047.75;10458088;28;20507;-68
2022/08/03 03:50:05;;;;;;;3.50;2.87;;;;;;;18.08;73.61;100045.50;10459862;28;20096;-68
2022/08/03 03:55:07;;;;;;;3.80;2.75;;;;;;;17.98;73.81;100045.22;10442375;28;20036;-68
2022/08/03 04:00:10;;;;;;;3.10;2.38;;;;;;;18.04;73.80;100050.16;10440313;28;20049;-69
2022/08/03 04:15:58;;;;;;;5.10;3.10;;;;;;;18.08;73.75;100045.50;10457880;28;20048;-69
2022/08/03 04:21:08;;;;;;;3.03;2.75;;;;;;;18.24;73.94;100053.34;10458336;28;20096;-68
2022/08/03 04:26:12;;;;;;;4.00;2.40;;;;;;;18.27;73.86;100062.00;10457745;28;20045;-69
2022/08/03 04:31:16;;;;;;;2.60;2.40;;;;;;;18.29;73.71;100053.94;10457666;28;20441;-68
2022/08/03 04:36:21;;;;;;;2.92;2.70;;;;;;;18.33;73.68;100066.97;10457094;28;20041;-68
2022/08/03 04:41:25;;;;;;;2.53;2.27;;;;;;;18.42;72.97;100065.53;10457855;28;20127;-69
2022/08/03 04:46:31;;;;;;;2.60;2.40;;;;;;;18.50;72.66;100071.19;10438864;28;20303;-69
2022/08/03 04:51:36;;;;;;;2.33;2.15;;;;;;;18.64;72.51;100073.84;10457988;28;20409;-69
2022/08/03 04:56:40;;;;;;;2.75;2.30;;;;;;;18.76;72.18;100074.00;10456186;28;20041;-68
2022/08/03 05:01:43;;;;;;;2.80;2.35;;;;;;;18.97;71.21;100071.75;10456711;28;20049;-69
2022/08/03 05:06:44;;;;;;;2.47;2.28;;;;;;;19.29;69.15;100077.59;10457210;28;20045;-70
2022/08/03 05:11:48;;;;;;;6.38;2.70;;;;;;;19.72;66.52;100072.06;10456922;28;20498;-69
2022/08/03 05:16:50;;;;;;;2.38;1.98;;;;;;;19.80;66.45;100064.38;10456894;28;20052;-69
2022/08/03 05:21:52;;;;;;;3.22;2.03;;;;;;;19.89;66.34;100058.41;10458718;28;20482;-69
2022/08/03 05:26:54;;;;;;;2.45;2.15;;;;;;;19.95;66.36;100071.31;10457024;28;20409;-69
2022/08/03 05:31:56;;;;;;;2.83;2.30;;;;;;;20.27;64.50;100069.00;10456991;28;20041;-69
2022/08/03 05:36:57;;;;;;;2.95;1.90;;;;;;;20.41;63.47;100074.25;10455590;28;20049;-69
2022/08/03 05:41:59;;;;;;;2.05;1.85;;;;;;;20.61;62.30;100069.28;10438138;28;20045;-69
2022/08/03 05:47:01;;;;;;;3.15;2.42;;;;;;;20.58;62.52;100066.84;10455820;28;20044;-69
2022/08/03 05:52:03;;;;;;;2.72;2.08;;;;;;;20.66;62.48;100067.13;10455790;28;20045;-69
2022/08/03 05:57:15;;;;;;;2.22;1.80;;;;;;;21.11;61.50;100060.19;10455769;28;20552;-69
2022/08/03 06:02:17;;;;;;;1.90;1.60;;;;;;;21.54;60.88;100064.16;10456704;28;20374;-70
2022/08/03 06:07:19;;;;;;;2.55;2.00;;;;;;;21.85;58.84;100071.50;10455846;28;20044;-70
2022/08/03 06:12:20;;;;;;;2.92;1.73;;;;;;;22.86;55.95;100073.28;10462934;28;20052;-70
2022/08/03 06:17:22;;;;;;;2.08;1.88;;;;;;;23.45;54.27;100069.28;10463281;28;20099;-70
2022/08/03 06:22:27;;;;;;;3.20;1.67;;;;;;;24.34;51.55;100065.97;10462057;28;20068;-70
2022/08/03 06:27:28;;;;;;;1.95;1.70;;;;;;;25.10;49.07;100062.78;10462204;28;20045;-69
2022/08/03 06:32:39;;;;;;;3.78;1.60;;;;;;;25.39;48.24;100060.09;10461843;28;20033;-70
2022/08/03 06:37:45;;;;;;;5.38;1.73;;;;;;;25.43;48.25;100061.50;10443262;28;20045;-70
2022/08/03 06:42:47;;;;;;;2.50;1.73;;;;;;;25.77;47.17;100063.75;10461690;28;20512;-72
2022/08/03 06:48:03;;;;;;;3.13;1.65;;;;;;;26.22;46.21;100063.88;10461632;28;20413;-72
2022/08/03 06:53:06;;;;;;;5.30;1.67;;;;;;;26.64;44.87;100072.31;10461284;28;20052;-72
2022/08/03 06:58:08;;;;;;;7.00;1.77;;;;;;;26.98;44.12;100071.69;10461113;28;20049;-72
2022/08/03 07:03:09;;;;;;;5.78;1.60;;;;;;;27.30;43.48;100070.31;10443469;28;20037;-71
2022/08/03 07:08:11;;;;;;;5.60;1.60;;;;;;;27.43;43.83;100068.06;10461112;28;20052;-72
2022/08/03 07:13:13;;;;;;;5.35;1.77;;;;;;;27.96;42.19;100075.22;10461051;28;20041;-72
2022/08/03 07:18:14;;;;;;;2.78;1.42;;;;;;;28.62;40.15;100066.44;10460681;28;20059;-72
2022/08/03 07:23:16;;;;;;;6.10;1.73;;;;;;;28.76;39.80;100066.81;10460133;28;20044;-71
2022/08/03 07:28:20;;;;;;;4.13;2.03;;;;;;;28.76;40.20;100074.94;10460880;28;20048;-72
2022/08/03 07:33:21;;;;;;;4.68;1.58;;;;;;;28.92;39.95;100073.13;10445498;28;20564;-72
2022/08/03 07:38:23;;;;;;;5.85;1.67;;;;;;;28.81;40.12;100059.88;10461059;28;20067;-71
2022/08/03 07:43:25;;;;;;;2.90;1.63;;;;;;;28.99;39.83;100059.78;10459535;28;20052;-71
2022/08/03 07:48:26;;;;;;;3.17;1.50;;;;;;;29.18;39.03;100060.50;10460017;28;20045;-71
2022/08/03 07:53:28;;;;;;;3.35;1.80;;;;;;;29.28;39.10;100058.47;10460443;28;20431;-71
2022/08/03 07:58:30;;;;;;;1.90;1.70;;;;;;;29.62;38.21;100061.88;10458906;28;20040;-72
2022/08/03 08:03:32;;;;;;;4.35;1.52;;;;;;;30.10;37.48;100062.75;10459641;28;20037;-72
2022/08/03 08:08:58;;;;;;;2.28;1.35;;;;;;;29.82;38.06;100056.91;10460053;28;20052;-72
2022/08/03 08:14:01;;;;;;;2.08;1.42;;;;;;;30.08;37.78;100051.25;10460725;28;20045;-72
2022/08/03 08:19:03;;;;;;;2.70;1.33;;;;;;;30.42;36.75;100052.03;10459534;28;20041;-72
2022/08/03 08:24:05;;;;;;;5.45;1.35;;;;;;;30.82;36.18;100059.13;10458849;28;20037;-72
2022/08/03 08:29:21;;;;;;;2.35;1.60;;;;;;;30.56;36.66;100048.56;10458941;28;20087;-72
2022/08/03 08:34:23;;;;;;;;;;;;;;;30.61;36.70;100043.44;10459190;28;20037;-72
2022/08/03 08:39:25;;;;;;;5.20;1.40;;;;;;;30.78;36.18;100042.34;10459072;28;19925;-71
2022/08/03 08:44:28;;;;;;;4.03;1.45;;;;;;;30.87;36.71;100045.84;10458335;28;20128;-71
2022/08/03 08:49:31;;;;;;;2.22;1.10;;;;;;;31.24;35.74;100042.34;10458732;28;20044;-71
2022/08/03 08:54:37;;;;;;;3.30;1.25;;;;;;;31.77;35.20;100045.13;10458274;28;20047;-72
2022/08/03 08:59:38;;;;;;;0.93;0.82;;;;;;;31.77;34.46;100031.53;10457703;28;20036;-71
2022/08/03 09:04:50;;;;;;;1.88;1.00;;;;;;;32.06;33.59;100033.47;10458771;28;20052;-71
2022/08/03 09:09:52;;;;;;;2.13;0.98;;;;;;;31.77;33.71;100032.38;10441148;28;20060;-71
2022/08/03 09:15:22;;;;;;;3.22;0.88;;;;;;;31.77;33.79;100039.69;10458508;28;20449;-71
2022/08/03 09:20:27;;;;;;;1.45;0.82;;;;;;;31.81;33.01;100030.97;10459431;28;20478;-72
2022/08/03 09:25:37;;;;;;;0.63;0.60;;;;;;;32.38;32.25;100024.91;10458541;28;20045;-72
2022/08/03 09:30:41;;;;;;;2.65;0.85;;;;;;;32.47;32.61;100022.91;10458744;28;20052;-71
2022/08/03 09:35:45;;;;;;;3.33;1.00;;;;;;;33.07;31.74;100018.13;10457852;28;20053;-72
2022/08/03 09:40:56;;;;;;;1.42;0.90;;;;;;;33.02;31.57;100026.88;10458484;28;20275;-72
2022/08/03 09:46:03;;;;;;;1.90;1.08;;;;;;;33.33;31.27;100020.25;10464495;28;20071;-72
2022/08/03 09:51:06;;;;;;;1.73;0.90;;;;;;;33.78;30.95;100018.97;10447061;28;20452;-72
2022/08/03 09:56:45;;;;;;;3.63;1.10;;;;;;;33.66;30.55;100006.09;10491553;28;20044;-73
2022/08/03 10:01:47;;;;;;;3.17;1.00;;;;;;;33.31;31.20;100008.72;10506090;28;20040;-72
2022/08/03 10:07:05;;;;;;;1.55;0.98;;;;;;;34.58;29.80;100001.13;10505034;28;20094;-72
2022/08/03 10:12:08;;;;;;;2.85;0.90;;;;;;;35.17;29.12;100001.47;10505272;28;20043;-72
2022/08/03 10:17:10;;;;;;;1.67;0.98;;;;;;;34.31;29.89;99997.44;10505723;28;20139;-73
2022/08/03 10:22:14;;;;;;;1.20;0.80;;;;;;;34.87;29.25;99999.09;10506045;28;20520;-73
2022/08/03 10:27:18;;;;;;;3.33;1.10;;;;;;;34.80;28.98;99990.88;10504611;28;20040;-72
2022/08/03 10:32:48;;;;;;;9.63;1.30;;;;;;;34.55;28.61;99990.63;10486875;28;20048;-72
2022/08/03 10:38:20;;;;;;;3.20;1.00;;;;;;;34.24;28.82;99991.09;10505803;28;20497;-73
2022/08/03 10:43:32;;;;;;;5.07;1.10;;;;;;;34.52;28.56;99993.75;10296450;28;20054;-72
2022/08/03 10:48:35;;;;;;;3.40;0.93;;;;;;;34.46;28.93;99985.53;10297321;28;20062;-72
2022/08/03 10:53:41;;;;;;;1.75;1.10;;;;;;;34.42;28.50;99976.91;10293476;28;20047;-72
2022/08/03 10:58:55;;;;;;;1.50;0.90;;;;;;;34.96;28.54;99975.13;10295907;28;20071;-72
2022/08/03 11:03:58;;;;;;;1.13;0.98;;;;;;;34.98;28.03;99975.81;10295455;28;20046;-72
2022/08/03 11:09:09;;;;;;;3.45;1.10;;;;;;;35.48;27.19;99970.78;10278440;28;20054;-72
2022/08/03 11:14:20;;;;;;;3.15;0.93;;;;;;;35.60;26.65;99964.44;10295611;28;20070;-73
2022/08/03 11:19:24;;;;;;;4.53;1.15;;;;;;;35.63;27.57;99966.75;10438697;28;20048;-72
2022/08/03 11:24:41;;;;;;;1.55;0.88;;;;;;;35.53;27.14;99957.31;10502751;28;20490;-72
2022/08/03 11:29:56;;;;;;;1.25;0.95;;;;;;;34.87;27.83;99955.38;10460964;28;20506;-71
2022/08/03 11:35:26;;;;;;;1.55;0.98;;;;;;;34.64;28.49;99956.63;10460330;28;20041;-72
2022/08/03 11:40:35;;;;;;;2.22;1.00;;;;;;;34.79;28.14;99952.84;10470049;28;20497;-72
2022/08/03 11:45:37;;;;;;;3.10;0.85;;;;;;;34.80;28.03;99949.94;10483607;28;20041;-72
2022/08/03 11:50:39;;;;;;;2.67;0.80;;;;;;;34.94;28.01;99939.03;10501315;28;20132;-72
2022/08/03 11:55:43;;;;;;;3.25;1.00;;;;;;;34.87;27.11;99937.09;10501085;28;20472;-73
2022/08/03 12:00:45;;;;;;;1.47;0.90;;;;;;;34.80;27.48;99933.56;10501417;28;20498;-73
2022/08/03 12:05:52;;;;;;;3.72;1.20;;;;;;;35.41;26.74;99931.63;10499879;28;20119;-72
2022/08/03 12:10:56;;;;;;;2.28;0.93;;;;;;;35.30;26.74;99930.41;10501264;28;20040;-72
2022/08/03 12:15:58;;;;;;;0.90;0.80;;;;;;;34.62;27.65;99923.25;10500642;28;20486;-73
2022/08/03 12:21:06;;;;;;;1.45;0.90;;;;;;;34.73;26.99;99924.50;10501153;28;20063;-73
2022/08/03 12:26:08;;;;;;;2.72;0.90;;;;;;;34.68;26.95;99913.38;10499842;28;20036;-72
2022/08/03 12:31:11;;;;;;;2.00;1.00;;;;;;;34.35;27.27;99918.72;10501738;28;20110;-72
2022/08/03 12:36:13;;;;;;;2.00;0.80;;;;;;;34.74;26.93;99911.69;10501334;28;20043;-72
2022/08/03 12:41:15;;;;;;;1.30;0.77;;;;;;;34.58;26.67;99897.41;10482912;28;20051;-72
2022/08/03 12:46:18;;;;;;;4.05;0.90;;;;;;;34.92;26.52;99898.25;10483236;28;20489;-72
2022/08/03 12:51:20;;;;;;;0.80;0.80;;;;;;;34.68;26.58;99899.72;10500466;28;20490;-72
2022/08/03 12:56:22;;;;;;;1.00;1.00;;;;;;;34.70;26.42;99894.88;10500082;28;20115;-72
2022/08/03 13:01:26;;;;;;;2.90;0.77;;;;;;;35.09;26.30;99891.34;10482111;28;20059;-72
2022/08/03 13:06:28;;;;;;;2.60;0.75;;;;;;;35.48;25.48;99886.88;10449265;28;20083;-72
2022/08/03 13:11:30;;;;;;;1.60;0.90;;;;;;;35.35;25.87;99890.44;10458628;28;20045;-72
2022/08/03 13:16:51;;;;;;;1.88;0.80;;;;;;;35.17;25.48;99889.44;10458585;28;20120;-72
2022/08/03 13:21:53;;;;;;;4.00;0.90;;;;;;;35.29;25.23;99879.56;10448527;28;20127;-72
2022/08/03 13:27:06;;;;;;;2.42;0.77;;;;;;;35.08;25.31;99878.72;10446883;28;20127;-72
2022/08/03 13:32:27;;;;;;;4.07;0.93;;;;;;;35.04;25.89;99880.22;10464908;28;20045;-72
2022/08/03 13:37:31;;;;;;;1.58;0.90;;;;;;;34.89;25.34;99879.56;10465215;28;20040;-71
2022/08/03 13:42:34;;;;;;;2.70;0.75;;;;;;;34.78;25.77;99875.56;10447509;28;20044;-72
2022/08/03 13:47:36;;;;;;;0.98;0.80;;;;;;;34.68;25.02;99875.16;10464276;28;20079;-71
2022/08/03 13:52:38;;;;;;;1.13;0.77;;;;;;;34.53;24.67;99866.31;10504707;28;20129;-71
2022/08/03 13:57:40;;;;;;;4.38;1.10;;;;;;;34.86;24.62;99866.31;10479331;28;20041;-71
2022/08/03 14:03:02;;;;;;;1.17;0.90;;;;;;;34.64;24.89;99858.34;10505575;28;20044;-72
2022/08/03 14:08:13;;;;;;;0.93;0.70;;;;;;;34.19;25.57;99850.91;10504989;28;20445;-72
2022/08/03 14:13:15;;;;;;;1.02;0.70;;;;;;;34.38;24.90;99859.13;10505683;28;20048;-71
2022/08/03 14:18:19;;;;;;;2.05;0.75;;;;;;;34.30;25.17;99855.75;10502546;28;20490;-71
2022/08/03 14:23:36;;;;;;;1.67;0.80;;;;;;;34.23;25.07;99846.72;10471159;28;20067;-71
2022/08/03 14:28:39;;;;;;;1.17;0.80;;;;;;;34.04;25.22;99851.06;10485836;28;20044;-71
2022/08/03 14:33:40;;;;;;;8.27;0.95;;;;;;;34.20;24.40;99834.34;10503624;28;20489;-71
2022/08/03 14:38:42;;;;;;;2.47;0.80;;;;;;;34.22;24.40;99834.13;10486986;28;20048;-72
2022/08/03 14:43:43;;;;;;;1.67;0.90;;;;;;;34.14;24.67;99827.81;10496993;28;20430;-72
2022/08/03 14:49:04;;;;;;;0.93;0.82;;;;;;;34.10;24.79;99828.44;10464394;28;20044;-71
2022/08/03 14:54:27;;;;;;;1.30;0.90;;;;;;;33.96;24.57;99834.94;10449653;28;20514;-72
2022/08/03 14:59:29;;;;;;;2.05;0.60;;;;;;;33.68;24.56;99835.81;10462482;28;20082;-72
2022/08/03 15:04:51;;;;;;;0.90;0.70;;;;;;;33.70;24.69;99816.56;10461867;28;20436;-70
2022/08/03 15:09:53;;;;;;;2.50;0.90;;;;;;;33.74;25.46;99818.66;10461316;28;20552;-72
2022/08/03 15:14:55;;;;;;;1.15;0.80;;;;;;;33.73;24.74;99816.13;10461810;28;20041;-73
2022/08/03 15:19:56;;;;;;;1.52;1.00;;;;;;;33.58;24.94;99808.13;10462312;28;20496;-72
2022/08/03 15:25:10;;;;;;;2.00;0.80;;;;;;;33.66;24.37;99804.38;10460715;28;20382;-73
2022/08/03 15:30:34;;;;;;;0.60;0.60;;;;;;;33.54;24.87;99798.66;10461278;28;20045;-73
2022/08/03 15:35:36;;;;;;;;;;;;;;;33.70;24.09;99805.66;10460594;28;20072;-73
2022/08/03 15:40:38;;;;;;;1.85;0.70;;;;;;;33.67;24.55;99798.72;10441790;28;19920;-73
2022/08/03 15:45:41;;;;;;;1.80;0.73;;;;;;;33.70;24.69;99800.22;10460779;28;20048;-73
2022/08/03 15:50:43;;;;;;;2.83;0.60;;;;;;;34.12;23.69;99793.59;10460471;28;20048;-73
2022/08/03 15:55:45;;;;;;;2.55;0.90;;;;;;;34.83;23.18;99793.84;10459977;28;20041;-72
2022/08/03 16:00:47;;;;;;;3.97;1.10;;;;;;;36.31;21.54;99788.44;10461258;28;20394;-73
2022/08/03 16:05:49;;;;;;;5.43;0.90;;;;;;;35.64;22.24;99787.16;10458668;28;20060;-73
2022/08/03 16:10:51;;;;;;;2.08;0.80;;;;;;;35.70;22.20;99782.69;10454549;28;20132;-73
2022/08/03 16:15:53;;;;;;;2.22;0.90;;;;;;;34.91;22.73;99786.50;10459721;28;20057;-73
2022/08/03 16:20:58;;;;;;;1.45;0.70;;;;;;;34.32;22.90;99771.81;10441917;28;20465;-72
2022/08/03 16:25:59;;;;;;;1.83;1.00;;;;;;;33.77;24.13;99771.91;10460019;28;20490;-73
2022/08/03 16:31:01;;;;;;;2.92;0.98;;;;;;;33.36;25.56;99772.78;10445055;28;20041;-73
2022/08/03 16:36:03;;;;;;;2.17;1.33;;;;;;;33.27;24.81;99775.88;10459315;28;20032;-73
2022/08/03 16:41:04;;;;;;;1.17;0.98;;;;;;;33.22;24.68;99776.50;10459449;28;20044;-72
2022/08/03 16:46:06;;;;;;;1.05;1.00;;;;;;;33.03;24.70;99774.50;10458553;28;20106;-72
2022/08/03 16:51:08;;;;;;;2.20;0.98;;;;;;;33.02;25.26;99779.09;10459190;28;20037;-73
2022/08/03 16:56:09;;;;;;;1.75;0.77;;;;;;;32.65;25.31;99781.13;10456884;28;20064;-73
2022/08/03 17:01:13;;;;;;;1.25;1.00;;;;;;;32.62;25.37;99773.34;10464862;28;20577;-72
2022/08/03 17:06:25;;;;;;;0.95;0.90;;;;;;;32.39;26.34;99773.59;10497395;28;20047;-73
2022/08/03 17:11:37;;;;;;;1.02;0.90;;;;;;;32.28;26.66;99776.84;10494665;28;20075;-72
2022/08/03 17:16:46;;;;;;;0.70;0.70;;;;;;;32.25;26.08;99785.38;10498080;28;20047;-73
2022/08/03 17:22:09;;;;;;;1.60;0.90;;;;;;;32.15;26.66;99787.59;10497396;28;20063;-73
2022/08/03 17:27:17;;;;;;;2.05;1.83;;;;;;;32.02;26.85;99788.28;10498046;28;20413;-73
2022/08/03 17:32:41;;;;;;;4.78;1.20;;;;;;;31.97;27.41;99798.06;10497542;28;20119;-71
2022/08/03 17:37:58;;;;;;;2.72;1.00;;;;;;;31.88;27.15;99791.91;10482599;28;20044;-72
2022/08/03 17:43:07;;;;;;;3.30;1.10;;;;;;;31.86;27.32;99793.97;10497937;28;20048;-73
2022/08/03 17:48:31;;;;;;;3.20;1.55;;;;;;;31.54;27.82;99798.78;10499122;28;20044;-73
2022/08/03 17:53:37;;;;;;;1.43;1.00;;;;;;;31.48;27.63;99799.56;10497391;28;20056;-73
2022/08/03 17:58:53;;;;;;;2.28;1.08;;;;;;;31.27;27.83;99802.19;10497122;28;20045;-73
2022/08/03 18:04:01;;;;;;;1.67;0.93;;;;;;;31.20;28.01;99804.78;10497084;28;20045;-72
2022/08/03 18:09:13;;;;;;;1.08;0.98;;;;;;;30.98;28.19;99814.69;10503676;28;20041;-73
2022/08/03 18:14:51;;;;;;;2.10;1.07;;;;;;;30.95;29.09;99815.09;10486192;28;20041;-73
2022/08/03 18:20:02;;;;;;;1.58;1.10;;;;;;;30.56;30.39;99815.28;10504783;28;20139;-73
2022/08/03 18:25:16;;;;;;;1.77;1.00;;;;;;;30.30;31.08;99824.63;10505827;28;20040;-74
2022/08/03 18:30:41;;;;;;;1.42;1.20;;;;;;;30.20;31.88;99821.31;10503561;28;20053;-73
2022/08/03 18:35:57;;;;;;;2.90;1.20;;;;;;;29.88;32.91;99825.03;10485760;28;20051;-73
2022/08/03 18:40:59;;;;;;;1.23;0.82;;;;;;;29.51;33.73;99834.69;10485958;28;20044;-72
2022/08/03 18:46:05;;;;;;;1.70;1.00;;;;;;;29.25;33.89;99825.97;10502023;28;20045;-72
2022/08/03 18:51:12;;;;;;;1.60;1.10;;;;;;;29.08;34.14;99831.44;10504150;28;20044;-72
2022/08/03 18:56:57;;;;;;;1.83;1.40;;;;;;;28.79;35.06;99847.38;10503164;28;20044;-77
2022/08/03 19:02:13;;;;;;;1.58;1.27;;;;;;;28.46;35.75;99844.66;10504824;28;20040;-77
2022/08/03 19:07:23;;;;;;;2.75;1.40;;;;;;;28.19;37.43;99851.19;10505716;28;20063;-77
2022/08/03 19:12:31;;;;;;;2.72;2.53;;;;;;;28.43;34.81;99850.44;10504990;28;20500;-77
2022/08/03 19:17:51;;;;;;;2.10;1.90;;;;;;;27.91;36.26;99853.34;10502659;28;20040;-76
2022/08/03 19:22:57;;;;;;;3.05;1.77;;;;;;;27.82;36.19;99848.94;10502817;28;20406;-76
2022/08/03 19:27:59;;;;;;;2.63;1.77;;;;;;;27.64;36.39;99849.84;10501680;28;20037;-76
2022/08/03 19:33:03;;;;;;;2.33;1.50;;;;;;;27.71;36.14;99852.72;10501445;28;20474;-76
2022/08/03 19:38:08;;;;;;;3.92;1.80;;;;;;;27.22;38.15;99847.09;10467504;28;20064;-76
2022/08/03 19:43:20;;;;;;;2.70;1.75;;;;;;;27.22;37.38;99851.66;10484484;28;20050;-76
2022/08/03 19:48:28;;;;;;;2.90;2.05;;;;;;;27.04;37.67;99855.25;10502375;28;20052;-76
2022/08/03 19:53:31;;;;;;;4.55;2.00;;;;;;;26.92;38.09;99856.53;10501900;28;20052;-76
2022/08/03 19:58:38;;;;;;;3.75;1.80;;;;;;;27.00;37.86;99850.31;10500935;28;20056;-76
2022/08/03 20:03:41;;;;;;;2.55;2.20;;;;;;;26.64;38.56;99855.78;10503106;28;20052;-76
2022/08/03 20:08:44;;;;;;;1.92;1.83;;;;;;;26.49;39.02;99851.97;10485453;28;20517;-76
2022/08/03 20:13:53;;;;;;;3.95;1.83;;;;;;;26.38;39.11;99859.25;10503982;28;20074;-76
2022/08/03 20:18:55;;;;;;;1.85;1.75;;;;;;;26.24;39.40;99856.25;10504595;28;20041;-77
2022/08/03 20:24:03;;;;;;;3.10;1.80;;;;;;;26.09;40.05;99850.56;10483031;28;20080;-76
2022/08/03 20:29:37;;;;;;;2.60;1.83;;;;;;;25.96;40.55;99853.63;10484844;28;20115;-77
2022/08/03 20:34:59;;;;;;;2.17;1.83;;;;;;;25.82;40.83;99860.38;10502925;28;20080;-76
2022/08/03 20:40:01;;;;;;;3.47;2.95;;;;;;;25.75;41.23;99863.78;10501654;28;20048;-76
2022/08/03 20:45:05;;;;;;;7.82;6.70;;;;;;;25.62;41.43;99856.03;10500129;28;20048;-77
2022/08/03 20:50:30;;;;;;;6.30;5.80;;;;;;;25.71;41.47;99854.31;10501175;28;20520;-77
2022/08/03 20:55:32;;;;;;;4.28;3.88;;;;;;;25.45;42.34;99856.84;10499642;28;20067;-74
2022/08/03 21:00:56;;;;;;;3.13;2.83;;;;;;;25.51;42.76;99865.19;10499312;28;20040;-77
2022/08/03 21:06:05;;;;;;;3.25;2.50;;;;;;;25.36;43.35;99861.25;10481707;28;20053;-77
2022/08/03 21:11:15;;;;;;;2.10;2.00;;;;;;;25.23;43.83;99869.66;10500331;28;20405;-76
2022/08/03 21:16:20;;;;;;;2.83;1.70;;;;;;;25.19;44.37;99856.66;10500096;28;20079;-76
2022/08/03 21:21:22;;;;;;;4.60;1.80;;;;;;;25.27;44.02;99868.38;10498934;28;20047;-76
2022/08/03 21:26:26;;;;;;;2.42;2.22;;;;;;;25.30;44.17;99873.47;10499005;28;20113;-76
2022/08/03 21:31:27;;;;;;;3.17;1.80;;;;;;;25.24;44.95;99876.75;10480702;28;20063;-77
2022/08/03 21:36:34;;;;;;;2.88;2.40;;;;;;;25.05;45.46;99871.38;10479970;28;20052;-76
2022/08/03 21:41:37;;;;;;;2.38;1.67;;;;;;;24.89;45.97;99866.63;10504888;28;20056;-76
2022/08/03 21:46:41;;;;;;;2.10;1.90;;;;;;;24.82;45.79;99865.50;10505949;28;20051;-76
2022/08/03 21:51:44;;;;;;;3.15;1.98;;;;;;;24.71;46.62;99869.19;10490528;28;20060;-76
2022/08/03 21:56:49;;;;;;;2.90;1.70;;;;;;;24.62;46.75;99873.59;10491557;28;20045;-76
2022/08/03 22:01:52;;;;;;;2.63;1.83;;;;;;;24.45;47.70;99876.16;10509868;28;20048;-76
2022/08/03 22:06:59;;;;;;;5.72;1.67;;;;;;;24.39;47.86;99875.72;10506140;28;20037;-75
2022/08/03 22:12:01;;;;;;;2.70;2.05;;;;;;;24.26;48.38;99874.25;10505706;28;20044;-75
2022/08/03 22:17:05;;;;;;;2.38;1.77;;;;;;;24.26;48.77;99867.06;10487804;28;20037;-77
2022/08/03 22:22:12;;;;;;;2.03;1.92;;;;;;;24.17;48.86;99867.88;10504461;28;20044;-76
2022/08/03 22:27:30;;;;;;;;;;;;;;;24.07;49.27;99873.22;10505175;28;20456;-76
2022/08/03 22:32:32;;;;;;;3.50;2.15;;;;;;;23.98;50.16;99876.75;10508593;28;19921;-75
2022/08/03 22:37:35;;;;;;;1.63;1.52;;;;;;;23.98;50.30;99881.28;10490297;28;20056;-76
2022/08/03 22:42:39;;;;;;;2.08;1.88;;;;;;;23.85;50.25;99874.31;10507399;28;20037;-76
2022/08/03 22:47:40;;;;;;;2.95;2.10;;;;;;;23.70;51.31;99878.38;10469197;28;20041;-76
2022/08/03 22:52:43;;;;;;;2.40;1.90;;;;;;;23.82;51.63;99880.00;10485272;28;20053;-75
2022/08/03 22:57:45;;;;;;;2.90;2.03;;;;;;;23.62;51.35;99879.03;10503960;28;20090;-75
2022/08/03 23:02:58;;;;;;;2.95;1.95;;;;;;;23.47;51.84;99875.03;10504367;28;20405;-77
2022/08/03 23:08:02;;;;;;;3.17;1.60;;;;;;;23.37;51.79;99880.38;10503152;28;20048;-76
2022/08/03 23:13:05;;;;;;;2.58;1.83;;;;;;;23.32;52.23;99871.84;10501822;28;20041;-76
2022/08/03 23:18:08;;;;;;;3.17;1.83;;;;;;;23.38;52.55;99882.06;10502307;28;20410;-77
2022/08/03 23:23:10;;;;;;;2.58;2.30;;;;;;;23.27;52.60;99884.81;10503379;28;20045;-77
2022/08/03 23:28:15;;;;;;;2.97;2.10;;;;;;;23.12;53.27;99884.31;10503382;28;20036;-77
2022/08/03 23:33:17;;;;;;;2.35;1.80;;;;;;;23.14;53.47;99884.16;10484381;28;20060;-76
2022/08/03 23:38:22;;;;;;;7.78;2.53;;;;;;;23.09;53.34;99878.38;10501485;28;20044;-76
2022/08/03 23:43:25;;;;;;;2.63;1.77;;;;;;;22.90;54.28;99877.28;10502106;28;20071;-76
2022/08/03 23:48:47;;;;;;;2.58;2.10;;;;;;;22.83;54.59;99883.25;10502078;28;20049;-76
2022/08/03 23:54:07;;;;;;;2.10;2.00;;;;;;;22.73;54.66;99876.97;10502065;28;20044;-76